Time;durP1;ratioP1;P1;durP2;ratioP2;P2;SDS_P1;SDS_P2;PMS_P1;PMS_P2;Temp;Humidity;BMP_temperature;BMP_pressure;BME280_temperature;BME280_humidity;BME280_pressure;Samples;Min_cycle;Max_cycle;Signal;HPM_P1;HPM_P2
2022/07/04 00:03:33;;;;;;;;;;;17.80;1.00;;;;;;10492631;27;84186;-48
2022/07/04 00:08:34;;;;;;;;;;;17.70;1.00;;;;;;10490343;27;86362;-48
2022/07/04 00:13:34;;;;;;;;;;;17.70;1.00;;;;;;10491184;27;83893;-47
2022/07/04 00:18:35;;;;;;;;;;;17.60;1.00;;;;;;10492671;27;84183;-47
2022/07/04 00:23:35;;;;;;;;;;;17.50;1.00;;;;;;10492722;27;84125;-48
2022/07/04 00:28:36;;;;;;;;;;;17.50;1.00;;;;;;10491567;27;84005;-46
2022/07/04 00:33:36;;;;;;;;;;;17.50;1.00;;;;;;10491863;27;83738;-47
2022/07/04 00:38:37;;;;;;;;;;;17.40;1.00;;;;;;10491511;27;84087;-47
2022/07/04 00:43:37;;;;;;;;;;;17.30;1.00;;;;;;10491384;27;84050;-47
2022/07/04 00:48:38;;;;;;;;;;;17.30;1.00;;;;;;10491547;27;84274;-46
2022/07/04 00:53:38;;;;;;;;;;;17.10;1.00;;;;;;10491466;27;83643;-49
2022/07/04 00:58:39;;;;;;;;;;;17.10;1.00;;;;;;10491602;27;84025;-47
2022/07/04 01:03:39;;;;;;;;;;;17.00;1.00;;;;;;10490865;27;83840;-46
2022/07/04 01:08:40;;;;;;;;;;;16.90;1.00;;;;;;10490686;27;84168;-45
2022/07/04 01:13:42;;;;;;;;;;;16.90;1.00;;;;;;10490723;27;84262;-48
2022/07/04 01:18:42;;;;;;;;;;;16.80;1.00;;;;;;10490784;27;83908;-48
2022/07/04 01:23:43;;;;;;;;;;;16.80;1.00;;;;;;10491060;27;84315;-48
2022/07/04 01:28:43;;;;;;;;;;;16.60;1.00;;;;;;10491255;27;83991;-48
2022/07/04 01:33:44;;;;;;;;;;;16.60;1.00;;;;;;10497575;27;84021;-47
2022/07/04 01:38:44;;;;;;;;;;;16.40;1.00;;;;;;10497151;27;83975;-47
2022/07/04 01:43:45;;;;;;;;;;;16.30;1.00;;;;;;10496493;27;83757;-46
2022/07/04 01:48:45;;;;;;;;;;;16.30;1.00;;;;;;10496617;27;83689;-46
2022/07/04 01:53:46;;;;;;;;;;;16.20;1.00;;;;;;10496708;27;83772;-46
2022/07/04 01:58:46;;;;;;;;;;;16.20;1.00;;;;;;10496852;27;84203;-45
2022/07/04 02:03:47;;;;;;;;;;;16.20;1.00;;;;;;10496892;27;84056;-49
2022/07/04 02:14:07;;;;;;;;;;;16.00;16.40;;;;;;10496382;27;83808;-46
2022/07/04 02:19:07;;;;;;;;;;;16.00;23.20;;;;;;10495677;27;84135;-47
2022/07/04 02:24:08;;;;;;;;;;;15.90;37.70;;;;;;10496032;27;84144;-45
2022/07/04 02:29:08;;;;;;;;;;;15.90;83.60;;;;;;10494833;27;84292;-46
2022/07/04 02:34:09;;;;;;;;;;;15.80;97.40;;;;;;10495308;27;84021;-46
2022/07/04 02:39:09;;;;;;;;;;;15.70;99.90;;;;;;10494559;27;83764;-47
2022/07/04 02:44:10;;;;;;;;;;;15.70;99.90;;;;;;10495020;27;83595;-47
2022/07/04 02:49:11;;;;;;;;;;;15.70;99.90;;;;;;10494658;27;83585;-50
2022/07/04 02:54:11;;;;;;;;;;;15.70;99.90;;;;;;10484089;27;83594;-47
2022/07/04 02:59:12;;;;;;;;;;;15.70;99.90;;;;;;10494804;27;84189;-49
2022/07/04 03:04:12;;;;;;;;;;;15.60;99.90;;;;;;10494572;27;83744;-50
2022/07/04 03:09:13;;;;;;;;;;;15.60;99.90;;;;;;10494817;27;83727;-47
2022/07/04 03:14:13;;;;;;;;;;;15.70;99.90;;;;;;10493998;27;84137;-46
2022/07/04 03:19:15;;;;;;;;;;;15.70;99.90;;;;;;10493401;27;83749;-47
2022/07/04 03:24:15;;;;;;;;;;;15.60;99.90;;;;;;10494170;27;83901;-47
2022/07/04 03:29:16;;;;;;;;;;;15.60;99.90;;;;;;10479683;27;83787;-49
2022/07/04 03:34:16;;;;;;;;;;;15.60;99.90;;;;;;10491320;27;83947;-47
2022/07/04 03:39:17;;;;;;;;;;;15.40;99.90;;;;;;10491134;27;83869;-47
2022/07/04 03:44:17;;;;;;;;;;;15.40;99.90;;;;;;10492866;27;84319;-52
2022/07/04 03:49:18;;;;;;;;;;;15.40;99.90;;;;;;10492685;27;84234;-47
2022/07/04 03:54:18;;;;;;;;;;;15.40;99.90;;;;;;10481179;27;84034;-47
2022/07/04 03:59:19;;;;;;;;;;;15.30;99.90;;;;;;10491769;27;84211;-46
2022/07/04 04:09:39;;;;;;;;;;;15.40;99.90;;;;;;10490762;27;84371;-50
2022/07/04 04:14:39;;;;;;;;;;;15.30;99.90;;;;;;10475714;27;84064;-46
2022/07/04 04:19:40;;;;;;;;;;;15.40;99.90;;;;;;10473932;27;85336;-46
2022/07/04 04:24:40;;;;;;;;;;;15.50;99.90;;;;;;10507750;27;86385;-50
2022/07/04 04:29:41;;;;;;;;;;;15.40;99.90;;;;;;10511972;27;83668;-48
2022/07/04 04:34:41;;;;;;;;;;;15.40;99.90;;;;;;10511031;27;84217;-45
2022/07/04 04:39:42;;;;;;;;;;;15.50;99.90;;;;;;10498432;22;84113;-49
2022/07/04 04:44:42;;;;;;;;;;;15.60;99.90;;;;;;10471333;27;83690;-52
2022/07/04 04:49:43;;;;;;;;;;;15.60;99.90;;;;;;10455385;27;83975;-52
2022/07/04 04:54:50;;;;;;;;;;;15.70;36.50;;;;;;10448984;27;83596;-49
2022/07/04 04:59:51;;;;;;;;;;;15.70;29.00;;;;;;10470409;27;84131;-48
2022/07/04 05:04:51;;;;;;;;;;;15.70;1.00;;;;;;10457992;27;83873;-53
2022/07/04 05:09:58;;;;;;;;;;;15.70;1.00;;;;;;10476227;27;83334;-50
2022/07/04 05:14:58;;;;;;;;;;;15.80;1.00;;;;;;10474965;27;83983;-49
2022/07/04 05:19:59;;;;;;;;;;;15.90;1.00;;;;;;10474733;27;86509;-51
2022/07/04 05:24:59;;;;;;;;;;;16.00;1.00;;;;;;10475798;27;83220;-50
2022/07/04 05:30:00;;;;;;;;;;;16.10;1.00;;;;;;10477165;27;84080;-50
2022/07/04 05:35:01;;;;;;;;;;;16.40;1.00;;;;;;10474053;27;83834;-53
2022/07/04 05:40:02;;;;;;;;;;;16.60;1.00;;;;;;10466648;27;83384;-53
2022/07/04 05:45:03;;;;;;;;;;;16.80;1.00;;;;;;10463430;27;83381;-53
2022/07/04 05:50:04;;;;;;;;;;;17.00;1.00;;;;;;10457611;27;83449;-52
2022/07/04 05:55:06;;;;;;;;;;;17.10;1.00;;;;;;10450572;28;84541;-54
2022/07/04 06:00:07;;;;;;;;;;;17.40;1.00;;;;;;10449606;27;83355;-54
2022/07/04 06:05:11;;;;;;;;;;;17.60;1.00;;;;;;10446526;28;84083;-55
2022/07/04 06:10:11;;;;;;;;;;;17.60;1.00;;;;;;10462963;27;83390;-51
2022/07/04 06:15:12;;;;;;;;;;;17.80;1.00;;;;;;10454695;27;86306;-51
2022/07/04 06:20:13;;;;;;;;;;;17.70;1.00;;;;;;10442582;27;83735;-52
2022/07/04 06:25:14;;;;;;;;;;;17.70;1.00;;;;;;10456290;28;83615;-52
2022/07/04 06:30:15;;;;;;;;;;;17.90;1.00;;;;;;10454020;27;83316;-50
2022/07/04 06:40:39;;;;;;;;;;;18.40;1.00;;;;;;10454333;27;83447;-53
2022/07/04 06:45:40;;;;;;;;;;;18.60;1.00;;;;;;10453715;28;83201;-50
2022/07/04 06:50:40;;;;;;;;;;;18.60;1.00;;;;;;10453759;28;84174;-53
2022/07/04 06:55:42;;;;;;;;;;;18.70;99.90;;;;;;10453107;28;86310;-51
2022/07/04 07:00:43;;;;;;;;;;;19.00;99.90;;;;;;10454045;28;84123;-52
2022/07/04 07:05:44;;;;;;;;;;;19.20;99.90;;;;;;10468873;27;84086;-54
2022/07/04 07:10:45;;;;;;;;;;;19.40;1.00;;;;;;10456093;28;83288;-50
2022/07/04 07:15:45;;;;;;;;;;;19.70;1.00;;;;;;10452891;27;83821;-55
2022/07/04 07:20:46;;;;;;;;;;;19.70;99.90;;;;;;10452463;27;83455;-52
2022/07/04 07:25:46;;;;;;;;;;;19.80;99.90;;;;;;10453393;27;83303;-53
2022/07/04 07:30:47;;;;;;;;;;;20.20;1.00;;;;;;10454826;28;84055;-58
2022/07/04 07:35:47;;;;;;;;;;;20.50;1.00;;;;;;10456099;28;84186;-50
2022/07/04 07:40:48;;;;;;;;;;;20.80;99.90;;;;;;10454133;28;84063;-53
2022/07/04 07:45:48;;;;;;;;;;;21.30;99.90;;;;;;10457785;27;84105;-54
2022/07/04 07:50:49;;;;;;;;;;;21.90;1.00;;;;;;10456706;28;83181;-51
2022/07/04 07:55:49;;;;;;;;;;;22.50;1.00;;;;;;10469134;27;84269;-54
2022/07/04 08:00:50;;;;;;;;;;;22.70;1.00;;;;;;10469051;27;84317;-50
2022/07/04 08:05:50;;;;;;;;;;;23.10;1.00;;;;;;10451343;27;84136;-53
2022/07/04 08:10:51;;;;;;;;;;;23.30;99.90;;;;;;10451782;28;84405;-53
2022/07/04 08:15:52;;;;;;;;;;;24.30;13.90;;;;;;10451472;27;83161;-52
2022/07/04 08:20:52;;;;;;;;;;;24.30;1.00;;;;;;10451720;28;84052;-52
2022/07/04 08:25:53;;;;;;;;;;;24.40;1.00;;;;;;10451365;28;83861;-51
2022/07/04 08:30:54;;;;;;;;;;;25.10;90.50;;;;;;10451356;27;83268;-50
2022/07/04 08:35:55;;;;;;;;;;;25.20;1.00;;;;;;10450197;27;84121;-54
2022/07/04 08:40:56;;;;;;;;;;;25.70;1.00;;;;;;10457801;28;83902;-54
2022/07/04 08:45:58;;;;;;;;;;;26.00;1.00;;;;;;10457053;27;84311;-54
2022/07/04 08:51:19;;;;;;;;;;;26.00;1.00;;;;;;10456705;28;84004;-51
2022/07/04 09:01:40;;;;;;;;;;;27.40;99.90;;;;;;10459343;28;84450;-55
2022/07/04 09:06:42;;;;;;;;;;;27.50;99.90;;;;;;10456647;27;83312;-50
2022/07/04 09:11:43;;;;;;;;;;;28.20;80.90;;;;;;10456032;27;84042;-51
2022/07/04 09:16:44;;;;;;;;;;;28.00;1.00;;;;;;10456211;28;83281;-55
2022/07/04 09:21:48;;;;;;;;;;;28.10;1.00;;;;;;10456752;27;83316;-55
2022/07/04 09:26:48;;;;;;;;;;;28.60;1.00;;;;;;10455980;27;83228;-52
2022/07/04 09:31:49;;;;;;;;;;;29.60;1.00;;;;;;10455466;28;83293;-55
2022/07/04 09:36:55;;;;;;;;;;;29.90;1.00;;;;;;10455919;28;83203;-53
2022/07/04 09:41:57;;;;;;;;;;;29.10;1.00;;;;;;10456980;28;83274;-56
2022/07/04 09:46:57;;;;;;;;;;;29.30;1.00;;;;;;10454827;28;83669;-52
2022/07/04 09:51:58;;;;;;;;;;;29.20;1.00;;;;;;10454699;28;83462;-56
2022/07/04 09:56:59;;;;;;;;;;;30.40;1.00;;;;;;10454575;27;83307;-55
2022/07/04 10:02:10;;;;;;;;;;;31.00;1.00;;;;;;10455032;27;83291;-52
2022/07/04 10:07:10;;;;;;;;;;;30.80;1.00;;;;;;10454000;27;83200;-53
2022/07/04 10:12:23;;;;;;;;;;;30.20;1.00;;;;;;10453960;27;83403;-53
2022/07/04 10:17:24;;;;;;;;;;;31.30;1.00;;;;;;10453139;28;83872;-50
2022/07/04 10:22:25;;;;;;;;;;;31.60;1.00;;;;;;10453315;27;84057;-52
2022/07/04 10:27:25;;;;;;;;;;;30.60;1.00;;;;;;10452914;27;83934;-54
2022/07/04 10:32:27;;;;;;;;;;;31.30;1.00;;;;;;10452571;28;83564;-54
2022/07/04 10:37:46;;;;;;;;;;;30.10;1.00;;;;;;10469235;22;84237;-49
2022/07/04 10:42:47;;;;;;;;;;;30.90;1.00;;;;;;10411382;28;83773;-49
2022/07/04 10:47:54;;;;;;;;;;;31.80;1.00;;;;;;10410633;28;84076;-47
2022/07/04 10:53:08;;;;;;;;;;;32.10;1.00;;;;;;10393246;28;84582;-50
2022/07/04 10:58:09;;;;;;;;;;;31.80;1.00;;;;;;10411383;28;83887;-47
2022/07/04 11:03:17;;;;;;;;;;;31.70;1.00;;;;;;10411395;28;83797;-48
2022/07/04 11:08:17;;;;;;;;;;;32.70;1.00;;;;;;10411065;28;84105;-47
2022/07/04 11:13:18;;;;;;;;;;;31.80;1.00;;;;;;10411226;28;84298;-49
2022/07/04 11:18:21;;;;;;;;;;;31.80;1.00;;;;;;10410681;28;84094;-49
2022/07/04 11:23:21;;;;;;;;;;;31.60;1.00;;;;;;10409588;28;83735;-43
2022/07/04 11:28:30;;;;;;;;;;;31.00;1.00;;;;;;10410983;28;83752;-49
2022/07/04 11:33:31;;;;;;;;;;;30.90;1.00;;;;;;10409658;28;83871;-49
2022/07/04 11:38:51;;;;;;;;;;;30.40;1.00;;;;;;10409069;28;84473;-48
2022/07/04 11:49:11;;;;;;;;;;;28.20;1.00;;;;;;10416739;28;83752;-45
2022/07/04 11:54:11;;;;;;;;;;;29.80;1.00;;;;;;10415501;28;84056;-47
2022/07/04 11:59:14;;;;;;;;;;;31.50;1.00;;;;;;10410810;28;83927;-48
2022/07/04 12:04:16;;;;;;;;;;;31.30;1.00;;;;;;10411569;28;83735;-46
2022/07/04 12:09:17;;;;;;;;;;;30.80;1.00;;;;;;10392921;28;84430;-46
2022/07/04 12:14:17;;;;;;;;;;;29.40;1.00;;;;;;10411778;28;84969;-48
2022/07/04 12:19:18;;;;;;;;;;;28.80;1.00;;;;;;10409127;28;83798;-46
2022/07/04 12:24:18;;;;;;;;;;;29.20;1.00;;;;;;10408185;28;83925;-46
2022/07/04 12:29:25;;;;;;;;;;;31.30;1.00;;;;;;10409999;28;84045;-46
2022/07/04 12:34:25;;;;;;;;;;;31.50;1.00;;;;;;10409591;28;83765;-49
2022/07/04 12:39:33;;;;;;;;;;;32.50;1.00;;;;;;10409213;28;83748;-46
2022/07/04 12:44:33;;;;;;;;;;;32.70;1.00;;;;;;10410041;28;83911;-45
2022/07/04 12:49:34;;;;;;;;;;;33.50;1.00;;;;;;10411112;28;83658;-48
2022/07/04 12:54:35;;;;;;;;;;;33.70;1.00;;;;;;10412699;28;83612;-48
2022/07/04 12:59:36;;;;;;;;;;;33.10;1.00;;;;;;10394166;28;83653;-48
2022/07/04 13:04:36;;;;;;;;;;;32.60;1.00;;;;;;10410223;28;84374;-46
2022/07/04 13:09:37;;;;;;;;;;;30.90;1.00;;;;;;10391337;28;85120;-46
2022/07/04 13:14:37;;;;;;;;;;;30.20;1.00;;;;;;10408247;28;85073;-48
2022/07/04 13:19:38;;;;;;;;;;;29.30;1.00;;;;;;10408464;28;84250;-47
2022/07/04 13:24:39;;;;;;;;;;;30.00;1.00;;;;;;10411581;28;84364;-46
2022/07/04 13:29:39;;;;;;;;;;;31.10;1.00;;;;;;10415778;28;83788;-48
2022/07/04 13:34:40;;;;;;;;;;;31.50;1.00;;;;;;10398219;28;83826;-47
2022/07/04 13:39:40;;;;;;;;;;;31.60;1.00;;;;;;10414962;28;83989;-50
2022/07/04 13:44:41;;;;;;;;;;;30.70;1.00;;;;;;10413738;28;85828;-48
2022/07/04 13:49:42;;;;;;;;;;;30.50;1.00;;;;;;10413961;28;83902;-49
2022/07/04 13:54:42;;;;;;;;;;;30.20;1.00;;;;;;10413759;28;83634;-48
2022/07/04 13:59:43;;;;;;;;;;;29.10;1.00;;;;;;10413422;28;83703;-46
2022/07/04 14:04:43;;;;;;;;;;;29.00;1.00;;;;;;10413896;28;84107;-46
2022/07/04 14:09:44;;;;;;;;;;;28.80;1.00;;;;;;10411367;28;83872;-46
2022/07/04 14:14:44;;;;;;;;;;;28.50;1.00;;;;;;10396488;28;84137;-47
2022/07/04 14:19:45;;;;;;;;;;;28.20;1.00;;;;;;10409312;28;84293;-46
2022/07/04 14:24:45;;;;;;;;;;;27.60;1.00;;;;;;10411762;28;83687;-47
2022/07/04 14:29:46;;;;;;;;;;;26.90;1.00;;;;;;10395359;28;83926;-47
2022/07/04 14:34:47;;;;;;;;;;;26.80;1.00;;;;;;10423423;28;84206;-49
2022/07/04 14:39:48;;;;;;;;;;;26.70;1.00;;;;;;10431857;28;84206;-48
2022/07/04 14:44:48;;;;;;;;;;;26.40;1.00;;;;;;10429230;28;83767;-48
2022/07/04 14:49:49;;;;;;;;;;;26.60;1.00;;;;;;10426587;28;83991;-48
2022/07/04 14:54:49;;;;;;;;;;;26.50;1.00;;;;;;10414034;28;83855;-45
2022/07/04 14:59:50;;;;;;;;;;;26.60;1.00;;;;;;10439902;28;84313;-45
2022/07/04 15:04:51;;;;;;;;;;;26.20;1.00;;;;;;10432226;28;84166;-47
2022/07/04 15:09:51;;;;;;;;;;;26.00;1.00;;;;;;10423332;27;84126;-45
2022/07/04 15:14:52;;;;;;;;;;;25.90;1.00;;;;;;10412019;28;84012;-46
2022/07/04 15:25:11;;;;;;;;;;;26.40;1.00;;;;;;10392971;28;84020;-47
2022/07/04 15:30:12;;;;;;;;;;;26.60;1.00;;;;;;10410398;28;84165;-46
2022/07/04 15:35:12;;;;;;;;;;;26.60;1.00;;;;;;10410694;28;84258;-45
2022/07/04 15:40:13;;;;;;;;;;;26.30;1.00;;;;;;10399157;28;84059;-46
2022/07/04 15:45:13;;;;;;;;;;;26.20;1.00;;;;;;10399767;28;84305;-51
2022/07/04 15:50:14;;;;;;;;;;;26.30;1.00;;;;;;10390209;28;84975;-49
2022/07/04 15:55:14;;;;;;;;;;;26.00;1.00;;;;;;10400066;28;84073;-48
2022/07/04 16:00:15;;;;;;;;;;;26.00;1.00;;;;;;10405721;28;84132;-51
2022/07/04 16:05:16;;;;;;;;;;;25.80;1.00;;;;;;10409294;28;83298;-49
2022/07/04 16:10:18;;;;;;;;;;;25.70;1.00;;;;;;10399544;28;104319;-50
2022/07/04 16:15:19;;;;;;;;;;;25.60;1.00;;;;;;10409789;28;83987;-47
2022/07/04 16:20:22;;;;;;;;;;;25.50;1.00;;;;;;10409749;28;85682;-48
2022/07/04 16:25:22;;;;;;;;;;;25.50;1.00;;;;;;10405466;28;84037;-46
2022/07/04 16:30:23;;;;;;;;;;;25.50;1.00;;;;;;10406220;28;83755;-50
2022/07/04 16:35:24;;;;;;;;;;;25.40;1.00;;;;;;10401679;28;83992;-51
2022/07/04 16:40:26;;;;;;;;;;;25.40;1.00;;;;;;10440227;22;83469;-52
2022/07/04 16:45:27;;;;;;;;;;;25.20;1.00;;;;;;10435133;28;84135;-47
2022/07/04 16:50:27;;;;;;;;;;;25.20;1.00;;;;;;10432892;28;84033;-53
2022/07/04 16:55:28;;;;;;;;;;;25.20;1.00;;;;;;10453089;28;84121;-49
2022/07/04 17:00:29;;;;;;;;;;;25.10;1.00;;;;;;10430556;28;84984;-52
2022/07/04 17:05:30;;;;;;;;;;;25.00;1.00;;;;;;10458564;28;84019;-46
2022/07/04 17:10:30;;;;;;;;;;;24.80;1.00;;;;;;10428020;28;85936;-50
2022/07/04 17:15:31;;;;;;;;;;;24.60;1.00;;;;;;10427611;28;84091;-47
2022/07/04 17:20:32;;;;;;;;;;;24.40;1.00;;;;;;10397703;28;86144;-51
2022/07/04 17:25:33;;;;;;;;;;;24.30;1.00;;;;;;10417227;28;84118;-47
2022/07/04 17:30:33;;;;;;;;;;;24.10;1.00;;;;;;10417037;28;83778;-52
2022/07/04 17:35:34;;;;;;;;;;;24.10;28.50;;;;;;10419087;28;83342;-51
2022/07/04 17:40:36;;;;;;;;;;;24.10;1.00;;;;;;10399259;28;85359;-48
2022/07/04 17:45:36;;;;;;;;;;;24.00;1.00;;;;;;10418505;28;83842;-52
2022/07/04 17:50:37;;;;;;;;;;;23.90;36.60;;;;;;10418780;28;84003;-48
2022/07/04 17:55:40;;;;;;;;;;;23.90;99.90;;;;;;10417228;28;84137;-48
2022/07/04 18:00:40;;;;;;;;;;;23.80;1.00;;;;;;10415861;28;83755;-48
2022/07/04 18:05:41;;;;;;;;;;;23.80;1.00;;;;;;10415366;28;84194;-51
2022/07/04 18:10:42;;;;;;;;;;;23.80;1.00;;;;;;10415274;28;83436;-53
2022/07/04 18:15:43;;;;;;;;;;;23.80;1.00;;;;;;10397943;28;86551;-51
2022/07/04 18:20:44;;;;;;;;;;;23.60;1.00;;;;;;10415458;28;83218;-46
2022/07/04 18:25:44;;;;;;;;;;;23.40;1.00;;;;;;10415690;28;83708;-51
2022/07/04 18:30:45;;;;;;;;;;;23.30;1.00;;;;;;10416081;28;83223;-50
2022/07/04 18:35:46;;;;;;;;;;;23.10;1.00;;;;;;10418004;28;84499;-46
2022/07/04 18:46:05;;;;;;;;;;;22.90;16.70;;;;;;10418449;28;83664;-49
2022/07/04 18:51:06;;;;;;;;;;;22.90;99.90;;;;;;10417338;28;83699;-47
2022/07/04 18:56:07;;;;;;;;;;;22.90;99.90;;;;;;10415053;28;84255;-47
2022/07/04 19:01:08;;;;;;;;;;;22.80;99.90;;;;;;10414516;28;85696;-50
2022/07/04 19:06:08;;;;;;;;;;;22.70;99.90;;;;;;10415005;28;83838;-49
2022/07/04 19:11:09;;;;;;;;;;;22.60;99.90;;;;;;10413934;28;84122;-50
2022/07/04 19:16:10;;;;;;;;;;;22.50;1.00;;;;;;10413681;28;84174;-48
2022/07/04 19:21:21;;;;;;;;;;;22.50;1.00;;;;;;10377488;28;84609;-47
2022/07/04 19:26:21;;;;;;;;;;;22.40;1.00;;;;;;10413787;28;84282;-51
2022/07/04 19:31:22;;;;;;;;;;;22.30;1.00;;;;;;10413026;28;84130;-47
2022/07/04 19:36:23;;;;;;;;;;;22.10;99.90;;;;;;10413591;28;83930;-49
2022/07/04 19:41:23;;;;;;;;;;;22.00;99.90;;;;;;10412409;28;83786;-50
2022/07/04 19:46:24;;;;;;;;;;;21.80;1.00;;;;;;10413122;28;83735;-48
2022/07/04 19:51:24;;;;;;;;;;;21.70;1.00;;;;;;10412417;28;83816;-49
2022/07/04 19:56:25;;;;;;;;;;;21.50;33.80;;;;;;10412239;28;84491;-52
2022/07/04 20:01:25;;;;;;;;;;;21.40;99.90;;;;;;10412297;28;84046;-48
2022/07/04 20:06:26;;;;;;;;;;;21.30;1.00;;;;;;10411399;28;83894;-47
2022/07/04 20:11:28;;;;;;;;;;;21.20;1.00;;;;;;10411439;28;83725;-47
2022/07/04 20:16:29;;;;;;;;;;;21.00;1.00;;;;;;10411713;28;83911;-47
2022/07/04 20:21:29;;;;;;;;;;;20.80;1.00;;;;;;10410573;28;84096;-47
2022/07/04 20:26:30;;;;;;;;;;;20.80;99.90;;;;;;10411238;28;84814;-47
2022/07/04 20:31:31;;;;;;;;;;;20.70;99.90;;;;;;10410161;28;83760;-51
2022/07/04 20:36:32;;;;;;;;;;;20.60;1.00;;;;;;10418385;28;83317;-47
2022/07/04 20:41:33;;;;;;;;;;;20.40;1.00;;;;;;10418083;28;83720;-47
2022/07/04 20:46:33;;;;;;;;;;;20.40;99.90;;;;;;10400553;28;83772;-46
2022/07/04 20:51:35;;;;;;;;;;;20.30;1.00;;;;;;10399228;28;86193;-50
2022/07/04 20:56:36;;;;;;;;;;;20.30;1.00;;;;;;10399587;28;84170;-47
2022/07/04 21:01:37;;;;;;;;;;;20.10;1.00;;;;;;10399506;28;84238;-47
2022/07/04 21:06:37;;;;;;;;;;;20.00;1.00;;;;;;10417546;28;83689;-45
2022/07/04 21:11:38;;;;;;;;;;;19.90;1.00;;;;;;10415824;28;84831;-43
2022/07/04 21:16:38;;;;;;;;;;;19.90;1.00;;;;;;10417022;28;83784;-48
2022/07/04 21:21:39;;;;;;;;;;;19.70;1.00;;;;;;10416549;28;83729;-46
2022/07/04 21:26:40;;;;;;;;;;;19.60;99.90;;;;;;10416748;28;84268;-48
2022/07/04 21:31:41;;;;;;;;;;;19.50;99.90;;;;;;10416065;28;83849;-45
2022/07/04 21:36:44;;;;;;;;;;;19.40;1.00;;;;;;10416494;28;83913;-48
2022/07/04 21:41:44;;;;;;;;;;;19.30;1.00;;;;;;10415662;28;84250;-46
2022/07/04 21:46:45;;;;;;;;;;;19.20;1.00;;;;;;10414543;28;83709;-53
2022/07/04 21:51:45;;;;;;;;;;;19.20;99.90;;;;;;10415846;28;83296;-50
2022/07/04 21:56:46;;;;;;;;;;;19.10;99.90;;;;;;10415316;28;83799;-47
2022/07/04 22:01:46;;;;;;;;;;;19.00;99.90;;;;;;10415370;28;83761;-48
2022/07/04 22:06:47;;;;;;;;;;;18.90;1.00;;;;;;10414893;28;84177;-46
2022/07/04 22:11:47;;;;;;;;;;;18.80;1.00;;;;;;10413967;28;84718;-47
2022/07/04 22:16:48;;;;;;;;;;;18.80;1.00;;;;;;10413914;28;84142;-46
2022/07/04 22:21:49;;;;;;;;;;;18.60;99.90;;;;;;10413701;28;84149;-53
2022/07/04 22:26:49;;;;;;;;;;;18.60;99.90;;;;;;10416235;28;83313;-49
2022/07/04 22:31:50;;;;;;;;;;;18.60;99.90;;;;;;10397674;28;84149;-46
2022/07/04 22:36:50;;;;;;;;;;;18.50;1.00;;;;;;10413368;28;83757;-46
2022/07/04 22:41:51;;;;;;;;;;;18.40;1.00;;;;;;10498541;22;84047;-48
2022/07/04 22:46:51;;;;;;;;;;;18.40;1.00;;;;;;10493759;27;84270;-49
2022/07/04 22:51:52;;;;;;;;;;;18.40;1.00;;;;;;10494192;27;84029;-52
2022/07/04 22:56:53;;;;;;;;;;;18.30;1.00;;;;;;10493789;27;84143;-50
2022/07/04 23:01:53;;;;;;;;;;;18.20;1.00;;;;;;10493134;27;84080;-48
2022/07/04 23:06:54;;;;;;;;;;;18.10;1.00;;;;;;10493530;27;83744;-48
2022/07/04 23:11:54;;;;;;;;;;;18.10;1.00;;;;;;10493104;27;83685;-51
2022/07/04 23:16:55;;;;;;;;;;;18.10;1.00;;;;;;10494294;27;83382;-48
2022/07/04 23:21:56;;;;;;;;;;;18.00;1.00;;;;;;10492934;27;83942;-51
2022/07/04 23:26:57;;;;;;;;;;;18.00;1.00;;;;;;10494634;27;83244;-48
2022/07/04 23:31:57;;;;;;;;;;;18.00;1.00;;;;;;10494561;27;85023;-48
2022/07/04 23:36:58;;;;;;;;;;;17.90;1.00;;;;;;10495355;27;83758;-51
2022/07/04 23:41:59;;;;;;;;;;;17.80;1.00;;;;;;10492821;27;85044;-51
2022/07/04 23:46:59;;;;;;;;;;;17.80;1.00;;;;;;10493796;27;83986;-49
2022/07/04 23:52:00;;;;;;;;;;;17.80;1.00;;;;;;10492791;27;84524;-52
2022/07/04 23:57:00;;;;;;;;;;;17.70;1.00;;;;;;10494743;27;83328;-51
